sensor_id;sensor_type;location;lat;lon;timestamp;P1;durP1;ratioP1;P2;durP2;ratioP2
9997;SDS011;5038;53.064;8.624;2022-12-18T00:01:28;48.30;;;32.80;;
9997;SDS011;5038;53.064;8.624;2022-12-18T00:03:59;43.47;;;32.37;;
9997;SDS011;5038;53.064;8.624;2022-12-18T00:06:32;48.50;;;33.57;;
9997;SDS011;5038;53.064;8.624;2022-12-18T00:09:03;50.77;;;33.23;;
9997;SDS011;5038;53.064;8.624;2022-12-18T00:11:31;46.90;;;32.60;;
9997;SDS011;5038;53.064;8.624;2022-12-18T00:13:59;45.13;;;32.90;;
9997;SDS011;5038;53.064;8.624;2022-12-18T00:16:28;50.03;;;32.40;;
9997;SDS011;5038;53.064;8.624;2022-12-18T00:18:59;43.37;;;29.97;;
9997;SDS011;5038;53.064;8.624;2022-12-18T00:21:29;45.97;;;31.07;;
9997;SDS011;5038;53.064;8.624;2022-12-18T00:23:58;41.57;;;30.50;;
9997;SDS011;5038;53.064;8.624;2022-12-18T00:26:29;51.20;;;34.90;;
9997;SDS011;5038;53.064;8.624;2022-12-18T00:29:01;41.77;;;30.37;;
9997;SDS011;5038;53.064;8.624;2022-12-18T00:31:31;42.47;;;32.07;;
9997;SDS011;5038;53.064;8.624;2022-12-18T00:34:01;45.40;;;33.03;;
9997;SDS011;5038;53.064;8.624;2022-12-18T00:36:29;48.27;;;34.60;;
9997;SDS011;5038;53.064;8.624;2022-12-18T00:39:00;41.43;;;31.83;;
9997;SDS011;5038;53.064;8.624;2022-12-18T00:41:31;43.90;;;30.87;;
9997;SDS011;5038;53.064;8.624;2022-12-18T00:44:17;45.17;;;32.23;;
9997;SDS011;5038;53.064;8.624;2022-12-18T00:46:46;44.40;;;31.10;;
9997;SDS011;5038;53.064;8.624;2022-12-18T00:49:15;42.73;;;31.57;;
9997;SDS011;5038;53.064;8.624;2022-12-18T00:51:45;44.17;;;30.70;;
9997;SDS011;5038;53.064;8.624;2022-12-18T00:54:14;41.03;;;30.80;;
9997;SDS011;5038;53.064;8.624;2022-12-18T00:56:43;48.50;;;31.80;;
9997;SDS011;5038;53.064;8.624;2022-12-18T00:59:16;42.97;;;30.10;;
9997;SDS011;5038;53.064;8.624;2022-12-18T01:01:45;41.93;;;31.27;;
9997;SDS011;5038;53.064;8.624;2022-12-18T01:04:14;38.10;;;30.83;;
9997;SDS011;5038;53.064;8.624;2022-12-18T01:06:44;43.93;;;30.93;;
9997;SDS011;5038;53.064;8.624;2022-12-18T01:09:12;46.60;;;34.10;;
9997;SDS011;5038;53.064;8.624;2022-12-18T01:11:41;45.07;;;32.73;;
9997;SDS011;5038;53.064;8.624;2022-12-18T01:14:11;46.27;;;30.90;;
9997;SDS011;5038;53.064;8.624;2022-12-18T01:16:39;40.00;;;29.80;;
9997;SDS011;5038;53.064;8.624;2022-12-18T01:19:08;43.30;;;32.43;;
9997;SDS011;5038;53.064;8.624;2022-12-18T01:21:37;47.67;;;34.27;;
9997;SDS011;5038;53.064;8.624;2022-12-18T01:24:05;42.47;;;30.83;;
9997;SDS011;5038;53.064;8.624;2022-12-18T01:26:34;42.90;;;32.30;;
9997;SDS011;5038;53.064;8.624;2022-12-18T01:29:02;38.80;;;29.20;;
9997;SDS011;5038;53.064;8.624;2022-12-18T01:31:32;39.70;;;31.37;;
9997;SDS011;5038;53.064;8.624;2022-12-18T01:34:02;36.37;;;28.83;;
9997;SDS011;5038;53.064;8.624;2022-12-18T01:36:31;37.87;;;30.30;;
9997;SDS011;5038;53.064;8.624;2022-12-18T01:39:01;43.53;;;32.47;;
9997;SDS011;5038;53.064;8.624;2022-12-18T01:41:31;39.90;;;29.80;;
9997;SDS011;5038;53.064;8.624;2022-12-18T01:47:32;44.50;;;30.90;;
9997;SDS011;5038;53.064;8.624;2022-12-18T01:50:05;40.87;;;30.00;;
9997;SDS011;5038;53.064;8.624;2022-12-18T01:52:36;43.50;;;32.97;;
9997;SDS011;5038;53.064;8.624;2022-12-18T01:55:09;46.20;;;31.40;;
9997;SDS011;5038;53.064;8.624;2022-12-18T01:57:38;38.60;;;29.53;;
9997;SDS011;5038;53.064;8.624;2022-12-18T02:00:10;39.43;;;30.80;;
9997;SDS011;5038;53.064;8.624;2022-12-18T02:02:43;40.00;;;31.03;;
9997;SDS011;5038;53.064;8.624;2022-12-18T02:05:14;42.37;;;31.20;;
9997;SDS011;5038;53.064;8.624;2022-12-18T02:07:49;39.50;;;31.80;;
9997;SDS011;5038;53.064;8.624;2022-12-18T02:10:31;35.70;;;29.50;;
9997;SDS011;5038;53.064;8.624;2022-12-18T02:13:07;40.03;;;30.57;;
9997;SDS011;5038;53.064;8.624;2022-12-18T02:15:42;39.50;;;31.23;;
9997;SDS011;5038;53.064;8.624;2022-12-18T02:18:20;42.87;;;34.30;;
9997;SDS011;5038;53.064;8.624;2022-12-18T02:20:53;44.10;;;31.73;;
9997;SDS011;5038;53.064;8.624;2022-12-18T02:23:33;40.50;;;31.33;;
9997;SDS011;5038;53.064;8.624;2022-12-18T02:26:15;40.80;;;30.13;;
9997;SDS011;5038;53.064;8.624;2022-12-18T02:28:51;39.97;;;30.50;;
9997;SDS011;5038;53.064;8.624;2022-12-18T02:31:25;36.27;;;29.80;;
9997;SDS011;5038;53.064;8.624;2022-12-18T02:33:59;39.73;;;28.80;;
9997;SDS011;5038;53.064;8.624;2022-12-18T02:36:36;40.27;;;30.20;;
9997;SDS011;5038;53.064;8.624;2022-12-18T02:39:10;43.40;;;32.20;;
9997;SDS011;5038;53.064;8.624;2022-12-18T02:41:51;38.03;;;29.23;;
9997;SDS011;5038;53.064;8.624;2022-12-18T02:44:22;39.50;;;31.80;;
9997;SDS011;5038;53.064;8.624;2022-12-18T02:46:52;40.63;;;31.33;;
9997;SDS011;5038;53.064;8.624;2022-12-18T02:49:25;37.03;;;28.00;;
9997;SDS011;5038;53.064;8.624;2022-12-18T02:52:01;37.93;;;28.80;;
9997;SDS011;5038;53.064;8.624;2022-12-18T02:54:44;36.20;;;28.40;;
9997;SDS011;5038;53.064;8.624;2022-12-18T02:57:29;35.67;;;28.70;;
9997;SDS011;5038;53.064;8.624;2022-12-18T03:00:04;39.60;;;28.03;;
9997;SDS011;5038;53.064;8.624;2022-12-18T03:02:37;35.60;;;29.17;;
9997;SDS011;5038;53.064;8.624;2022-12-18T03:05:12;34.40;;;28.80;;
9997;SDS011;5038;53.064;8.624;2022-12-18T03:07:46;38.63;;;30.33;;
9997;SDS011;5038;53.064;8.624;2022-12-18T03:10:19;36.87;;;29.17;;
9997;SDS011;5038;53.064;8.624;2022-12-18T03:12:53;36.70;;;29.17;;
9997;SDS011;5038;53.064;8.624;2022-12-18T03:15:28;34.67;;;27.20;;
9997;SDS011;5038;53.064;8.624;2022-12-18T03:18:10;33.90;;;26.73;;
9997;SDS011;5038;53.064;8.624;2022-12-18T03:20:42;35.70;;;29.57;;
9997;SDS011;5038;53.064;8.624;2022-12-18T03:23:18;36.23;;;27.40;;
9997;SDS011;5038;53.064;8.624;2022-12-18T03:25:52;35.97;;;26.80;;
9997;SDS011;5038;53.064;8.624;2022-12-18T03:28:26;31.60;;;25.83;;
9997;SDS011;5038;53.064;8.624;2022-12-18T03:31:01;31.87;;;27.03;;
9997;SDS011;5038;53.064;8.624;2022-12-18T03:33:34;34.70;;;28.10;;
9997;SDS011;5038;53.064;8.624;2022-12-18T03:36:07;34.80;;;25.97;;
9997;SDS011;5038;53.064;8.624;2022-12-18T03:38:37;34.70;;;26.03;;
9997;SDS011;5038;53.064;8.624;2022-12-18T03:41:08;30.80;;;24.07;;
9997;SDS011;5038;53.064;8.624;2022-12-18T03:44:07;33.00;;;25.00;;
9997;SDS011;5038;53.064;8.624;2022-12-18T03:46:45;31.33;;;25.70;;
9997;SDS011;5038;53.064;8.624;2022-12-18T03:49:23;38.63;;;25.67;;
9997;SDS011;5038;53.064;8.624;2022-12-18T03:51:58;31.87;;;23.80;;
9997;SDS011;5038;53.064;8.624;2022-12-18T03:54:31;27.90;;;24.20;;
9997;SDS011;5038;53.064;8.624;2022-12-18T03:57:09;34.40;;;24.00;;
9997;SDS011;5038;53.064;8.624;2022-12-18T03:59:43;29.10;;;22.37;;
9997;SDS011;5038;53.064;8.624;2022-12-18T04:02:19;28.30;;;22.47;;
9997;SDS011;5038;53.064;8.624;2022-12-18T04:04:50;30.97;;;24.03;;
9997;SDS011;5038;53.064;8.624;2022-12-18T04:07:21;30.03;;;24.27;;
9997;SDS011;5038;53.064;8.624;2022-12-18T04:09:50;28.23;;;22.97;;
9997;SDS011;5038;53.064;8.624;2022-12-18T04:12:23;28.93;;;23.40;;
9997;SDS011;5038;53.064;8.624;2022-12-18T04:14:54;31.37;;;23.93;;
9997;SDS011;5038;53.064;8.624;2022-12-18T04:17:22;31.03;;;24.70;;
9997;SDS011;5038;53.064;8.624;2022-12-18T04:19:51;28.57;;;23.13;;
9997;SDS011;5038;53.064;8.624;2022-12-18T04:22:19;29.70;;;22.60;;
9997;SDS011;5038;53.064;8.624;2022-12-18T04:24:52;27.70;;;21.63;;
9997;SDS011;5038;53.064;8.624;2022-12-18T04:27:28;26.50;;;21.87;;
9997;SDS011;5038;53.064;8.624;2022-12-18T04:29:59;24.37;;;17.67;;
9997;SDS011;5038;53.064;8.624;2022-12-18T04:32:29;27.83;;;23.43;;
9997;SDS011;5038;53.064;8.624;2022-12-18T04:34:58;30.20;;;23.90;;
9997;SDS011;5038;53.064;8.624;2022-12-18T04:37:27;26.30;;;22.97;;
9997;SDS011;5038;53.064;8.624;2022-12-18T04:39:55;34.80;;;22.50;;
9997;SDS011;5038;53.064;8.624;2022-12-18T04:42:31;28.50;;;22.57;;
9997;SDS011;5038;53.064;8.624;2022-12-18T04:45:01;33.37;;;23.10;;
9997;SDS011;5038;53.064;8.624;2022-12-18T04:47:30;28.57;;;22.57;;
9997;SDS011;5038;53.064;8.624;2022-12-18T04:49:58;27.47;;;22.73;;
9997;SDS011;5038;53.064;8.624;2022-12-18T04:52:26;28.23;;;22.93;;
9997;SDS011;5038;53.064;8.624;2022-12-18T04:54:58;28.27;;;22.20;;
9997;SDS011;5038;53.064;8.624;2022-12-18T04:57:26;30.63;;;22.20;;
9997;SDS011;5038;53.064;8.624;2022-12-18T04:59:54;27.83;;;20.97;;
9997;SDS011;5038;53.064;8.624;2022-12-18T05:02:23;28.53;;;21.20;;
9997;SDS011;5038;53.064;8.624;2022-12-18T05:04:52;28.87;;;22.77;;
9997;SDS011;5038;53.064;8.624;2022-12-18T05:07:20;27.23;;;21.20;;
9997;SDS011;5038;53.064;8.624;2022-12-18T05:09:48;25.40;;;21.70;;
9997;SDS011;5038;53.064;8.624;2022-12-18T05:12:16;26.80;;;21.13;;
9997;SDS011;5038;53.064;8.624;2022-12-18T05:14:44;23.80;;;19.92;;
9997;SDS011;5038;53.064;8.624;2022-12-18T05:17:12;27.63;;;20.57;;
9997;SDS011;5038;53.064;8.624;2022-12-18T05:19:42;25.47;;;22.13;;
9997;SDS011;5038;53.064;8.624;2022-12-18T05:22:10;27.10;;;21.20;;
9997;SDS011;5038;53.064;8.624;2022-12-18T05:24:39;25.13;;;21.43;;
9997;SDS011;5038;53.064;8.624;2022-12-18T05:27:07;25.73;;;20.63;;
9997;SDS011;5038;53.064;8.624;2022-12-18T05:29:35;27.47;;;21.10;;
9997;SDS011;5038;53.064;8.624;2022-12-18T05:32:03;28.37;;;20.37;;
9997;SDS011;5038;53.064;8.624;2022-12-18T05:34:31;29.13;;;21.60;;
9997;SDS011;5038;53.064;8.624;2022-12-18T05:37:01;24.50;;;19.47;;
9997;SDS011;5038;53.064;8.624;2022-12-18T05:39:29;22.70;;;19.00;;
9997;SDS011;5038;53.064;8.624;2022-12-18T05:41:57;27.83;;;19.87;;
9997;SDS011;5038;53.064;8.624;2022-12-18T05:44:25;26.63;;;20.43;;
9997;SDS011;5038;53.064;8.624;2022-12-18T05:46:53;26.77;;;20.93;;
9997;SDS011;5038;53.064;8.624;2022-12-18T05:49:22;23.50;;;19.07;;
9997;SDS011;5038;53.064;8.624;2022-12-18T05:51:50;23.10;;;19.20;;
9997;SDS011;5038;53.064;8.624;2022-12-18T05:54:19;24.37;;;20.50;;
9997;SDS011;5038;53.064;8.624;2022-12-18T05:56:48;24.33;;;19.10;;
9997;SDS011;5038;53.064;8.624;2022-12-18T05:59:16;23.07;;;18.17;;
9997;SDS011;5038;53.064;8.624;2022-12-18T06:01:44;24.40;;;18.57;;
9997;SDS011;5038;53.064;8.624;2022-12-18T06:04:12;24.43;;;19.77;;
9997;SDS011;5038;53.064;8.624;2022-12-18T06:06:41;24.30;;;17.90;;
9997;SDS011;5038;53.064;8.624;2022-12-18T06:09:09;21.02;;;16.92;;
9997;SDS011;5038;53.064;8.624;2022-12-18T06:11:39;22.67;;;18.63;;
9997;SDS011;5038;53.064;8.624;2022-12-18T06:14:08;23.77;;;18.63;;
9997;SDS011;5038;53.064;8.624;2022-12-18T06:16:37;23.77;;;19.73;;
9997;SDS011;5038;53.064;8.624;2022-12-18T06:19:05;25.30;;;18.40;;
9997;SDS011;5038;53.064;8.624;2022-12-18T06:21:33;27.27;;;19.77;;
9997;SDS011;5038;53.064;8.624;2022-12-18T06:24:02;23.70;;;18.03;;
9997;SDS011;5038;53.064;8.624;2022-12-18T06:26:30;21.80;;;18.20;;
9997;SDS011;5038;53.064;8.624;2022-12-18T06:29:00;22.50;;;17.13;;
9997;SDS011;5038;53.064;8.624;2022-12-18T06:31:28;18.95;;;16.13;;
9997;SDS011;5038;53.064;8.624;2022-12-18T06:33:56;22.60;;;18.37;;
9997;SDS011;5038;53.064;8.624;2022-12-18T06:36:24;22.17;;;18.17;;
9997;SDS011;5038;53.064;8.624;2022-12-18T06:38:55;21.38;;;16.50;;
9997;SDS011;5038;53.064;8.624;2022-12-18T06:41:24;19.17;;;16.20;;
9997;SDS011;5038;53.064;8.624;2022-12-18T06:43:52;22.48;;;17.88;;
9997;SDS011;5038;53.064;8.624;2022-12-18T06:46:26;24.27;;;17.75;;
9997;SDS011;5038;53.064;8.624;2022-12-18T06:48:54;22.45;;;17.73;;
9997;SDS011;5038;53.064;8.624;2022-12-18T06:51:24;23.30;;;17.70;;
9997;SDS011;5038;53.064;8.624;2022-12-18T06:53:53;24.75;;;19.58;;
9997;SDS011;5038;53.064;8.624;2022-12-18T06:56:21;23.92;;;20.10;;
9997;SDS011;5038;53.064;8.624;2022-12-18T06:58:49;32.33;;;24.15;;
9997;SDS011;5038;53.064;8.624;2022-12-18T07:01:17;33.53;;;24.70;;
9997;SDS011;5038;53.064;8.624;2022-12-18T07:03:47;24.92;;;20.42;;
9997;SDS011;5038;53.064;8.624;2022-12-18T07:06:19;20.60;;;17.20;;
9997;SDS011;5038;53.064;8.624;2022-12-18T07:08:49;27.33;;;18.35;;
9997;SDS011;5038;53.064;8.624;2022-12-18T07:11:18;21.17;;;16.87;;
9997;SDS011;5038;53.064;8.624;2022-12-18T07:13:46;22.88;;;17.35;;
9997;SDS011;5038;53.064;8.624;2022-12-18T07:16:15;23.37;;;17.37;;
9997;SDS011;5038;53.064;8.624;2022-12-18T07:18:52;17.53;;;15.70;;
9997;SDS011;5038;53.064;8.624;2022-12-18T07:21:22;23.35;;;18.38;;
9997;SDS011;5038;53.064;8.624;2022-12-18T07:23:51;19.35;;;17.00;;
9997;SDS011;5038;53.064;8.624;2022-12-18T07:26:20;23.63;;;18.67;;
9997;SDS011;5038;53.064;8.624;2022-12-18T07:28:49;20.63;;;15.73;;
9997;SDS011;5038;53.064;8.624;2022-12-18T07:31:18;20.73;;;16.73;;
9997;SDS011;5038;53.064;8.624;2022-12-18T07:33:47;23.33;;;16.93;;
9997;SDS011;5038;53.064;8.624;2022-12-18T07:36:18;20.90;;;15.95;;
9997;SDS011;5038;53.064;8.624;2022-12-18T07:38:49;20.52;;;15.60;;
9997;SDS011;5038;53.064;8.624;2022-12-18T07:41:19;21.52;;;16.90;;
9997;SDS011;5038;53.064;8.624;2022-12-18T07:43:47;20.13;;;15.43;;
9997;SDS011;5038;53.064;8.624;2022-12-18T07:46:16;19.70;;;16.30;;
9997;SDS011;5038;53.064;8.624;2022-12-18T07:48:44;19.55;;;16.88;;
9997;SDS011;5038;53.064;8.624;2022-12-18T07:51:15;21.80;;;16.05;;
9997;SDS011;5038;53.064;8.624;2022-12-18T07:53:46;21.20;;;16.67;;
9997;SDS011;5038;53.064;8.624;2022-12-18T07:56:17;20.77;;;16.60;;
9997;SDS011;5038;53.064;8.624;2022-12-18T07:58:56;19.15;;;16.10;;
9997;SDS011;5038;53.064;8.624;2022-12-18T08:01:24;21.80;;;17.65;;
9997;SDS011;5038;53.064;8.624;2022-12-18T08:03:53;21.40;;;17.15;;
9997;SDS011;5038;53.064;8.624;2022-12-18T08:06:22;21.30;;;16.80;;
9997;SDS011;5038;53.064;8.624;2022-12-18T08:08:51;21.77;;;16.80;;
9997;SDS011;5038;53.064;8.624;2022-12-18T08:11:21;20.00;;;16.40;;
9997;SDS011;5038;53.064;8.624;2022-12-18T08:13:50;20.40;;;17.23;;
9997;SDS011;5038;53.064;8.624;2022-12-18T08:16:19;22.25;;;17.08;;
9997;SDS011;5038;53.064;8.624;2022-12-18T08:18:48;20.67;;;15.18;;
9997;SDS011;5038;53.064;8.624;2022-12-18T08:21:17;20.73;;;17.15;;
9997;SDS011;5038;53.064;8.624;2022-12-18T08:23:50;23.87;;;18.37;;
9997;SDS011;5038;53.064;8.624;2022-12-18T08:26:20;20.10;;;16.80;;
9997;SDS011;5038;53.064;8.624;2022-12-18T08:28:50;21.75;;;16.40;;
9997;SDS011;5038;53.064;8.624;2022-12-18T08:31:19;22.83;;;18.40;;
9997;SDS011;5038;53.064;8.624;2022-12-18T08:33:49;19.65;;;15.93;;
9997;SDS011;5038;53.064;8.624;2022-12-18T08:36:19;19.47;;;14.93;;
9997;SDS011;5038;53.064;8.624;2022-12-18T08:38:48;21.52;;;15.07;;
9997;SDS011;5038;53.064;8.624;2022-12-18T08:41:18;18.20;;;16.20;;
9997;SDS011;5038;53.064;8.624;2022-12-18T08:43:47;21.57;;;17.40;;
9997;SDS011;5038;53.064;8.624;2022-12-18T08:46:36;19.97;;;16.30;;
9997;SDS011;5038;53.064;8.624;2022-12-18T08:49:06;19.10;;;16.57;;
9997;SDS011;5038;53.064;8.624;2022-12-18T08:51:35;21.25;;;16.13;;
9997;SDS011;5038;53.064;8.624;2022-12-18T08:54:05;21.87;;;16.73;;
9997;SDS011;5038;53.064;8.624;2022-12-18T08:56:33;20.90;;;17.90;;
9997;SDS011;5038;53.064;8.624;2022-12-18T08:59:02;22.83;;;18.07;;
9997;SDS011;5038;53.064;8.624;2022-12-18T09:01:31;22.75;;;17.45;;
9997;SDS011;5038;53.064;8.624;2022-12-18T09:04:00;20.77;;;18.00;;
9997;SDS011;5038;53.064;8.624;2022-12-18T09:06:30;23.60;;;18.07;;
9997;SDS011;5038;53.064;8.624;2022-12-18T09:08:58;23.27;;;18.93;;
9997;SDS011;5038;53.064;8.624;2022-12-18T09:11:28;20.93;;;17.60;;
9997;SDS011;5038;53.064;8.624;2022-12-18T09:13:57;23.20;;;17.10;;
9997;SDS011;5038;53.064;8.624;2022-12-18T09:16:27;21.93;;;18.07;;
9997;SDS011;5038;53.064;8.624;2022-12-18T09:18:58;22.57;;;18.27;;
9997;SDS011;5038;53.064;8.624;2022-12-18T09:21:27;24.07;;;20.07;;
9997;SDS011;5038;53.064;8.624;2022-12-18T09:24:04;20.50;;;18.00;;
9997;SDS011;5038;53.064;8.624;2022-12-18T09:26:35;24.03;;;18.03;;
9997;SDS011;5038;53.064;8.624;2022-12-18T09:29:04;23.10;;;18.43;;
9997;SDS011;5038;53.064;8.624;2022-12-18T09:31:33;22.93;;;19.30;;
9997;SDS011;5038;53.064;8.624;2022-12-18T09:34:02;25.23;;;20.10;;
9997;SDS011;5038;53.064;8.624;2022-12-18T09:36:31;23.03;;;19.67;;
9997;SDS011;5038;53.064;8.624;2022-12-18T09:38:59;20.40;;;17.70;;
9997;SDS011;5038;53.064;8.624;2022-12-18T09:41:39;22.97;;;18.80;;
9997;SDS011;5038;53.064;8.624;2022-12-18T09:44:14;23.23;;;19.17;;
9997;SDS011;5038;53.064;8.624;2022-12-18T09:46:49;23.40;;;18.77;;
9997;SDS011;5038;53.064;8.624;2022-12-18T09:49:22;23.27;;;18.77;;
9997;SDS011;5038;53.064;8.624;2022-12-18T09:51:54;22.97;;;19.00;;
9997;SDS011;5038;53.064;8.624;2022-12-18T09:54:26;23.43;;;18.00;;
9997;SDS011;5038;53.064;8.624;2022-12-18T09:57:01;22.90;;;18.63;;
9997;SDS011;5038;53.064;8.624;2022-12-18T09:59:30;22.17;;;19.83;;
9997;SDS011;5038;53.064;8.624;2022-12-18T10:02:11;24.67;;;20.03;;
9997;SDS011;5038;53.064;8.624;2022-12-18T10:04:42;23.57;;;19.20;;
9997;SDS011;5038;53.064;8.624;2022-12-18T10:07:13;22.23;;;18.50;;
9997;SDS011;5038;53.064;8.624;2022-12-18T10:09:49;24.33;;;20.20;;
9997;SDS011;5038;53.064;8.624;2022-12-18T10:12:28;21.27;;;18.97;;
9997;SDS011;5038;53.064;8.624;2022-12-18T10:15:07;20.87;;;18.57;;
9997;SDS011;5038;53.064;8.624;2022-12-18T10:17:43;22.33;;;19.23;;
9997;SDS011;5038;53.064;8.624;2022-12-18T10:20:16;21.13;;;18.17;;
9997;SDS011;5038;53.064;8.624;2022-12-18T10:22:57;24.17;;;18.03;;
9997;SDS011;5038;53.064;8.624;2022-12-18T10:25:31;22.33;;;19.93;;
9997;SDS011;5038;53.064;8.624;2022-12-18T10:28:10;22.73;;;20.40;;
9997;SDS011;5038;53.064;8.624;2022-12-18T10:30:41;24.00;;;21.40;;
9997;SDS011;5038;53.064;8.624;2022-12-18T10:33:10;22.90;;;20.00;;
9997;SDS011;5038;53.064;8.624;2022-12-18T10:35:42;22.33;;;19.93;;
9997;SDS011;5038;53.064;8.624;2022-12-18T10:38:21;21.03;;;18.80;;
9997;SDS011;5038;53.064;8.624;2022-12-18T10:40:54;21.33;;;19.03;;
9997;SDS011;5038;53.064;8.624;2022-12-18T10:43:26;21.90;;;19.73;;
9997;SDS011;5038;53.064;8.624;2022-12-18T10:46:04;24.67;;;20.43;;
9997;SDS011;5038;53.064;8.624;2022-12-18T10:48:52;24.47;;;21.60;;
9997;SDS011;5038;53.064;8.624;2022-12-18T10:51:23;21.43;;;18.80;;
9997;SDS011;5038;53.064;8.624;2022-12-18T10:53:57;23.53;;;21.03;;
9997;SDS011;5038;53.064;8.624;2022-12-18T10:56:29;22.17;;;19.77;;
9997;SDS011;5038;53.064;8.624;2022-12-18T10:59:03;22.90;;;20.60;;
9997;SDS011;5038;53.064;8.624;2022-12-18T11:01:44;23.43;;;21.03;;
9997;SDS011;5038;53.064;8.624;2022-12-18T11:04:19;23.70;;;19.70;;
9997;SDS011;5038;53.064;8.624;2022-12-18T11:06:53;20.73;;;18.57;;
9997;SDS011;5038;53.064;8.624;2022-12-18T11:09:23;22.80;;;20.40;;
9997;SDS011;5038;53.064;8.624;2022-12-18T11:11:53;21.70;;;19.33;;
9997;SDS011;5038;53.064;8.624;2022-12-18T11:14:25;21.40;;;19.03;;
9997;SDS011;5038;53.064;8.624;2022-12-18T11:16:55;22.90;;;19.77;;
9997;SDS011;5038;53.064;8.624;2022-12-18T11:19:46;23.47;;;18.77;;
9997;SDS011;5038;53.064;8.624;2022-12-18T11:22:20;25.00;;;20.27;;
9997;SDS011;5038;53.064;8.624;2022-12-18T11:24:53;24.30;;;21.70;;
9997;SDS011;5038;53.064;8.624;2022-12-18T11:27:49;21.07;;;18.90;;
9997;SDS011;5038;53.064;8.624;2022-12-18T11:30:24;25.50;;;20.63;;
9997;SDS011;5038;53.064;8.624;2022-12-18T11:32:55;24.67;;;20.27;;
9997;SDS011;5038;53.064;8.624;2022-12-18T11:35:38;21.40;;;18.93;;
9997;SDS011;5038;53.064;8.624;2022-12-18T11:38:13;22.23;;;19.70;;
9997;SDS011;5038;53.064;8.624;2022-12-18T11:40:47;22.07;;;19.50;;
9997;SDS011;5038;53.064;8.624;2022-12-18T11:43:22;20.87;;;18.70;;
9997;SDS011;5038;53.064;8.624;2022-12-18T11:45:58;22.33;;;20.13;;
9997;SDS011;5038;53.064;8.624;2022-12-18T11:48:30;21.63;;;19.57;;
9997;SDS011;5038;53.064;8.624;2022-12-18T11:51:01;23.97;;;20.57;;
9997;SDS011;5038;53.064;8.624;2022-12-18T11:53:32;21.70;;;19.40;;
9997;SDS011;5038;53.064;8.624;2022-12-18T11:56:07;20.73;;;18.50;;
9997;SDS011;5038;53.064;8.624;2022-12-18T11:58:56;20.70;;;18.57;;
9997;SDS011;5038;53.064;8.624;2022-12-18T12:01:36;20.40;;;18.30;;
9997;SDS011;5038;53.064;8.624;2022-12-18T12:04:17;21.57;;;19.27;;
9997;SDS011;5038;53.064;8.624;2022-12-18T12:07:02;19.83;;;17.70;;
9997;SDS011;5038;53.064;8.624;2022-12-18T12:09:39;19.87;;;17.77;;
9997;SDS011;5038;53.064;8.624;2022-12-18T12:12:19;18.47;;;16.60;;
9997;SDS011;5038;53.064;8.624;2022-12-18T12:14:57;19.43;;;15.57;;
9997;SDS011;5038;53.064;8.624;2022-12-18T12:17:34;17.40;;;15.60;;
9997;SDS011;5038;53.064;8.624;2022-12-18T12:20:11;17.23;;;15.43;;
9997;SDS011;5038;53.064;8.624;2022-12-18T12:22:47;16.93;;;15.23;;
9997;SDS011;5038;53.064;8.624;2022-12-18T12:25:24;22.13;;;18.07;;
9997;SDS011;5038;53.064;8.624;2022-12-18T12:28:05;17.47;;;15.77;;
9997;SDS011;5038;53.064;8.624;2022-12-18T12:30:48;16.63;;;14.70;;
9997;SDS011;5038;53.064;8.624;2022-12-18T12:33:33;19.97;;;16.77;;
9997;SDS011;5038;53.064;8.624;2022-12-18T12:36:09;19.73;;;17.80;;
9997;SDS011;5038;53.064;8.624;2022-12-18T12:38:46;20.37;;;17.53;;
9997;SDS011;5038;53.064;8.624;2022-12-18T12:41:18;19.10;;;17.20;;
9997;SDS011;5038;53.064;8.624;2022-12-18T12:44:08;18.90;;;16.90;;
9997;SDS011;5038;53.064;8.624;2022-12-18T12:46:41;19.63;;;16.13;;
9997;SDS011;5038;53.064;8.624;2022-12-18T12:49:13;16.40;;;14.80;;
9997;SDS011;5038;53.064;8.624;2022-12-18T12:51:43;18.70;;;16.90;;
9997;SDS011;5038;53.064;8.624;2022-12-18T12:54:16;20.37;;;18.23;;
9997;SDS011;5038;53.064;8.624;2022-12-18T12:56:48;18.27;;;16.40;;
9997;SDS011;5038;53.064;8.624;2022-12-18T12:59:22;18.97;;;16.97;;
9997;SDS011;5038;53.064;8.624;2022-12-18T13:01:59;17.63;;;15.70;;
9997;SDS011;5038;53.064;8.624;2022-12-18T13:04:34;18.40;;;16.50;;
9997;SDS011;5038;53.064;8.624;2022-12-18T13:07:08;19.30;;;17.30;;
9997;SDS011;5038;53.064;8.624;2022-12-18T13:12:54;18.43;;;16.57;;
9997;SDS011;5038;53.064;8.624;2022-12-18T13:15:25;17.30;;;15.50;;
9997;SDS011;5038;53.064;8.624;2022-12-18T13:18:04;19.73;;;17.63;;
9997;SDS011;5038;53.064;8.624;2022-12-18T13:20:41;21.17;;;18.97;;
9997;SDS011;5038;53.064;8.624;2022-12-18T13:23:20;22.17;;;19.90;;
9997;SDS011;5038;53.064;8.624;2022-12-18T13:25:55;20.13;;;17.87;;
9997;SDS011;5038;53.064;8.624;2022-12-18T13:28:50;19.17;;;17.17;;
9997;SDS011;5038;53.064;8.624;2022-12-18T13:34:28;21.60;;;18.23;;
9997;SDS011;5038;53.064;8.624;2022-12-18T13:40:00;20.00;;;18.00;;
9997;SDS011;5038;53.064;8.624;2022-12-18T13:42:36;19.43;;;17.53;;
9997;SDS011;5038;53.064;8.624;2022-12-18T13:48:22;20.50;;;18.30;;
9997;SDS011;5038;53.064;8.624;2022-12-18T13:50:55;19.27;;;16.80;;
9997;SDS011;5038;53.064;8.624;2022-12-18T13:53:26;19.43;;;17.53;;
9997;SDS011;5038;53.064;8.624;2022-12-18T13:55:58;19.60;;;17.60;;
9997;SDS011;5038;53.064;8.624;2022-12-18T13:58:26;18.50;;;16.60;;
9997;SDS011;5038;53.064;8.624;2022-12-18T14:00:54;21.57;;;17.30;;
9997;SDS011;5038;53.064;8.624;2022-12-18T14:03:26;18.47;;;16.67;;
9997;SDS011;5038;53.064;8.624;2022-12-18T14:05:58;20.53;;;18.40;;
9997;SDS011;5038;53.064;8.624;2022-12-18T14:08:32;19.33;;;17.40;;
9997;SDS011;5038;53.064;8.624;2022-12-18T14:11:06;20.20;;;18.10;;
9997;SDS011;5038;53.064;8.624;2022-12-18T14:13:39;18.70;;;16.70;;
9997;SDS011;5038;53.064;8.624;2022-12-18T14:16:11;20.50;;;17.43;;
9997;SDS011;5038;53.064;8.624;2022-12-18T14:18:46;19.53;;;15.90;;
9997;SDS011;5038;53.064;8.624;2022-12-18T14:21:19;18.97;;;17.07;;
9997;SDS011;5038;53.064;8.624;2022-12-18T14:24:02;18.50;;;16.47;;
9997;SDS011;5038;53.064;8.624;2022-12-18T14:26:32;20.67;;;17.90;;
9997;SDS011;5038;53.064;8.624;2022-12-18T14:29:01;19.40;;;17.60;;
9997;SDS011;5038;53.064;8.624;2022-12-18T14:32:03;18.37;;;16.47;;
9997;SDS011;5038;53.064;8.624;2022-12-18T14:34:41;17.33;;;15.63;;
9997;SDS011;5038;53.064;8.624;2022-12-18T14:37:10;18.43;;;16.20;;
9997;SDS011;5038;53.064;8.624;2022-12-18T14:39:40;18.23;;;16.40;;
9997;SDS011;5038;53.064;8.624;2022-12-18T14:42:18;17.77;;;15.97;;
9997;SDS011;5038;53.064;8.624;2022-12-18T14:44:47;20.97;;;18.63;;
9997;SDS011;5038;53.064;8.624;2022-12-18T14:47:35;18.47;;;16.70;;
9997;SDS011;5038;53.064;8.624;2022-12-18T14:50:05;20.07;;;17.80;;
9997;SDS011;5038;53.064;8.624;2022-12-18T14:52:41;17.60;;;15.80;;
9997;SDS011;5038;53.064;8.624;2022-12-18T14:55:14;16.93;;;15.13;;
9997;SDS011;5038;53.064;8.624;2022-12-18T14:57:43;18.10;;;15.63;;
9997;SDS011;5038;53.064;8.624;2022-12-18T15:00:14;17.17;;;15.33;;
9997;SDS011;5038;53.064;8.624;2022-12-18T15:02:45;16.80;;;15.03;;
9997;SDS011;5038;53.064;8.624;2022-12-18T15:05:19;16.37;;;14.73;;
9997;SDS011;5038;53.064;8.624;2022-12-18T15:07:52;16.67;;;14.97;;
9997;SDS011;5038;53.064;8.624;2022-12-18T15:10:22;18.10;;;15.73;;
9997;SDS011;5038;53.064;8.624;2022-12-18T15:13:05;17.80;;;16.00;;
9997;SDS011;5038;53.064;8.624;2022-12-18T15:15:45;17.53;;;15.33;;
9997;SDS011;5038;53.064;8.624;2022-12-18T15:18:16;16.37;;;14.13;;
9997;SDS011;5038;53.064;8.624;2022-12-18T15:20:48;15.47;;;14.07;;
9997;SDS011;5038;53.064;8.624;2022-12-18T15:23:18;17.37;;;15.67;;
9997;SDS011;5038;53.064;8.624;2022-12-18T15:25:49;17.43;;;14.43;;
9997;SDS011;5038;53.064;8.624;2022-12-18T15:28:24;16.03;;;14.33;;
9997;SDS011;5038;53.064;8.624;2022-12-18T15:31:04;13.80;;;11.30;;
9997;SDS011;5038;53.064;8.624;2022-12-18T15:33:59;15.67;;;13.57;;
9997;SDS011;5038;53.064;8.624;2022-12-18T15:36:34;15.17;;;12.50;;